x

Destruction Island, Wa (desw1) Weather Station

5:00pm - Sun 20th Apr 2014 All times are PDT. -7 hours from GMT.

  • Wind
    22mph, 26mph gusts
  • Air Temp 51°f
  • Sea Pressure 1022mb
  • Destruction Island, Wa
  • Destruction Island, Wa

More Historic Weather Station data

Upgrade to MSW Pro to gain access to the past 30 days of data for over 8000 Wavebouys and Weather Stations around the globe.

Join Pro

Comparision Forecast

View Surf forecast
   
Sun 04/20 5:00pm 22 26 mph 1022mb 51f
4:00pm 22 26 mph 1022.4mb 51f
3:00pm 24 28 mph 1023mb 51f
2:00pm 24 28 mph 1023.1mb 51f
1:00pm 13 14 mph 1023.8mb 50f
12:00pm 20 23 mph 1024.1mb 49f
11:00am 20 23 mph 1023.9mb 50f
10:00am 21 24 mph 1023.9mb 49f
9:00am 18 22 mph 1023.8mb 48f
8:00am 15 17 mph 1023.9mb 47f
7:00am 17 20 mph 1023.7mb 47f
6:00am 17 20 mph 1023.5mb 47f
5:00am 16
mph
1023.7mb 47f
4:00am 7 8 mph 1023.8mb 49f
3:00am 9 10 mph 1023.5mb 48f
2:00am 15 16 mph 1022.9mb 48f
1:00am 11 13 mph 1022.7mb 49f
12:00am 13 14 mph 1022.1mb 49f
Sat 04/19 11:00pm 14 15 mph 1021.2mb 49f
10:00pm 20 21 mph 1020.4mb 49f
9:00pm 15 16 mph 1019.3mb 49f
8:00pm 16 18 mph 1018.3mb 46f
7:00pm 17 18 mph 1017.1mb 49f
6:00pm 29 32 mph 1015.5mb 50f
5:00pm 23 26 mph 1014.3mb 50f
4:00pm 22 24 mph 1013.2mb 48f
3:00pm 24 26 mph 1011.9mb 49f
2:00pm 22 25 mph 1010.4mb 50f
1:00pm 23 26 mph 1009.3mb 48f
12:00pm 30 33 mph 1008.1mb 47f
11:00am 36 41 mph 1006.4mb 45f
10:00am 34 37 mph 1006.3mb 45f
9:00am 29 31 mph 1007mb 47f
8:00am 29 33 mph 1007.1mb 51f
7:00am 28 30 mph 1005.8mb 52f
6:00am 30 32 mph 1005.5mb 52f
5:00am 22 24 mph 1006.8mb 52f
4:00am 6 7 mph 1007.4mb 50f
3:00am 7 8 mph 1008.4mb 51f
2:00am 9 10 mph 1009mb 47f
1:00am 8 9 mph 1010.1mb 46f
12:00am 10 11 mph 1010.8mb 47f
Fri 04/18 11:00pm 13 14 mph 1011.8mb 48f
10:00pm 11 13 mph 1012.9mb 47f
9:00pm 9
mph
1014mb 48f
8:00pm 6
mph
1014.9mb 48f
7:00pm 2 3 mph 1016mb 49f
6:00pm 5
mph
1017.4mb 49f
5:00pm 3 5 mph 1018.4mb 50f
4:00pm 7 8 mph 1019.4mb 50f
3:00pm 10 11 mph 1019.7mb 50f
2:00pm 9 10 mph 1020.1mb 50f
1:00pm 5 8 mph 1020.2mb 50f
12:00pm 8 10 mph 1020.5mb 49f
11:00am 9 11 mph 1020.5mb 47f
10:00am 8 9 mph 1020.1mb 47f
9:00am 6 7 mph 1019.7mb 47f
8:00am 8 10 mph 1019.3mb 45f
7:00am 13 15 mph 1018.7mb 47f
6:00am 13 14 mph 1018mb 47f
5:00am 11 14 mph 1017.8mb 46f
4:00am 14 15 mph 1017.1mb 47f
3:00am 18 21 mph 1016.6mb 47f
2:00am 18 21 mph 1016.2mb 47f
1:00am 16 17 mph 1015.8mb 46f
12:00am 25 28 mph 1014.7mb 47f
Thu 04/17 11:00pm 23 25 mph 1014.1mb 47f
10:00pm 14 15 mph 1013.6mb 46f
9:00pm 21 23 mph 1012.5mb 48f
8:00pm 26 29 mph 1011mb 48f
7:00pm 20 22 mph 1010.3mb 47f
6:00pm 20 22 mph 1009.6mb 47f
5:00pm 25 28 mph 1008.3mb 46f
4:00pm 37 40 mph 1006.8mb 46f
3:00pm 25 33 mph 1006.7mb 49f
2:00pm 29 34 mph 1007.1mb 49f
1:00pm 28 31 mph 1007.5mb 49f
12:00pm 25 29 mph 1007.9mb 49f
11:00am 21 22 mph 1008.6mb 49f
10:00am 25 29 mph 1008.9mb 49f
9:00am 14 15 mph 1009.6mb 49f
8:00am 14 15 mph 1010.1mb 49f
7:00am 18 21 mph 1010.2mb 50f
6:00am 18 21 mph 1010.2mb 50f
5:00am 20 23 mph 1010.7mb 49f
4:00am 15 16 mph 1011.2mb 49f
3:00am 13 15 mph 1011.8mb 49f
2:00am 14 15 mph 1012.4mb 49f